ORMM/BSR METAR and TAF weather

Enter ICAO airport designator
Station Type Date Time Source
ORMM METAR 2019/06/16 04:00 UTC NOAA

ORMM 160400Z 00000KT CAVOK 34/10 Q1001 NOSIG


Station Type Date Time Source
ORMM Decoded METAR 2019/06/16 04:00 UTC NOAA

Station name not available
Jun 16, 2019 - 12:00 AM EDT / 2019.06.16 0400 UTC
Wind: Calm:0
Visibility: greater than 7 mile(s):0
Temperature: 93 F (34 C)
Dew Point: 50 F (10 C)
Relative Humidity: 23%
Pressure (altimeter): 29.56 in. Hg (1001 hPa)
ob: ORMM 160400Z 00000KT CAVOK 34/10 Q1001 NOSIG
cycle: 4

Station Type Date Time Source
ORMM TAF 2019/06/16 06:24 UTC NOAA

TAF ORMM 160400Z 1606/1706 29010KT CAVOK

Example: see airport list